sensor_id;sensor_type;location;lat;lon;timestamp;P1;durP1;ratioP1;P2;durP2;ratioP2
15061;SDS011;7630;50.306;8.566;2023-03-04T00:02:00;84.00;;;41.87;;
15061;SDS011;7630;50.306;8.566;2023-03-04T00:06:02;73.47;;;39.80;;
15061;SDS011;7630;50.306;8.566;2023-03-04T00:10:04;80.40;;;42.83;;
15061;SDS011;7630;50.306;8.566;2023-03-04T00:14:05;86.10;;;45.13;;
15061;SDS011;7630;50.306;8.566;2023-03-04T00:18:06;96.47;;;44.93;;
15061;SDS011;7630;50.306;8.566;2023-03-04T00:22:07;96.75;;;55.43;;
15061;SDS011;7630;50.306;8.566;2023-03-04T00:26:08;108.77;;;48.80;;
15061;SDS011;7630;50.306;8.566;2023-03-04T00:30:10;93.27;;;47.13;;
15061;SDS011;7630;50.306;8.566;2023-03-04T00:34:11;96.80;;;46.67;;
15061;SDS011;7630;50.306;8.566;2023-03-04T00:38:12;81.90;;;42.37;;
15061;SDS011;7630;50.306;8.566;2023-03-04T00:42:13;75.60;;;40.93;;
15061;SDS011;7630;50.306;8.566;2023-03-04T00:46:14;89.93;;;42.07;;
15061;SDS011;7630;50.306;8.566;2023-03-04T00:50:16;87.80;;;44.97;;
15061;SDS011;7630;50.306;8.566;2023-03-04T00:54:17;91.10;;;44.93;;
15061;SDS011;7630;50.306;8.566;2023-03-04T00:58:18;89.20;;;45.53;;
15061;SDS011;7630;50.306;8.566;2023-03-04T01:02:19;83.67;;;41.03;;
15061;SDS011;7630;50.306;8.566;2023-03-04T01:06:20;78.27;;;41.80;;
15061;SDS011;7630;50.306;8.566;2023-03-04T01:10:23;72.33;;;38.67;;
15061;SDS011;7630;50.306;8.566;2023-03-04T01:14:24;63.30;;;37.17;;
15061;SDS011;7630;50.306;8.566;2023-03-04T01:18:25;66.13;;;37.93;;
15061;SDS011;7630;50.306;8.566;2023-03-04T01:22:27;62.23;;;35.03;;
15061;SDS011;7630;50.306;8.566;2023-03-04T01:26:28;62.27;;;37.47;;
15061;SDS011;7630;50.306;8.566;2023-03-04T01:30:29;54.93;;;34.67;;
15061;SDS011;7630;50.306;8.566;2023-03-04T01:34:30;62.83;;;36.33;;
15061;SDS011;7630;50.306;8.566;2023-03-04T01:38:31;58.57;;;36.60;;
15061;SDS011;7630;50.306;8.566;2023-03-04T01:42:33;56.00;;;37.20;;
15061;SDS011;7630;50.306;8.566;2023-03-04T01:46:35;53.53;;;33.90;;
15061;SDS011;7630;50.306;8.566;2023-03-04T01:50:37;55.90;;;38.47;;
15061;SDS011;7630;50.306;8.566;2023-03-04T01:54:39;64.23;;;39.03;;
15061;SDS011;7630;50.306;8.566;2023-03-04T01:58:41;57.63;;;37.77;;
15061;SDS011;7630;50.306;8.566;2023-03-04T02:02:42;56.33;;;36.27;;
15061;SDS011;7630;50.306;8.566;2023-03-04T02:06:44;50.77;;;33.93;;
15061;SDS011;7630;50.306;8.566;2023-03-04T02:10:47;50.30;;;33.50;;
15061;SDS011;7630;50.306;8.566;2023-03-04T02:14:50;52.57;;;36.20;;
15061;SDS011;7630;50.306;8.566;2023-03-04T02:18:51;49.87;;;32.60;;
15061;SDS011;7630;50.306;8.566;2023-03-04T02:27:18;49.10;;;37.17;;
15061;SDS011;7630;50.306;8.566;2023-03-04T02:31:23;54.37;;;35.53;;
15061;SDS011;7630;50.306;8.566;2023-03-04T02:35:26;51.20;;;35.37;;
15061;SDS011;7630;50.306;8.566;2023-03-04T02:43:36;47.50;;;35.37;;
15061;SDS011;7630;50.306;8.566;2023-03-04T02:47:37;46.73;;;36.43;;
15061;SDS011;7630;50.306;8.566;2023-03-04T02:51:38;51.80;;;36.60;;
15061;SDS011;7630;50.306;8.566;2023-03-04T02:55:40;46.00;;;33.50;;
15061;SDS011;7630;50.306;8.566;2023-03-04T02:59:43;53.77;;;37.53;;
15061;SDS011;7630;50.306;8.566;2023-03-04T03:03:45;41.23;;;32.30;;
15061;SDS011;7630;50.306;8.566;2023-03-04T03:07:46;44.53;;;34.30;;
15061;SDS011;7630;50.306;8.566;2023-03-04T03:11:47;48.07;;;34.93;;
15061;SDS011;7630;50.306;8.566;2023-03-04T03:15:49;50.83;;;32.90;;
15061;SDS011;7630;50.306;8.566;2023-03-04T03:19:50;50.67;;;35.33;;
15061;SDS011;7630;50.306;8.566;2023-03-04T03:23:51;51.33;;;35.23;;
15061;SDS011;7630;50.306;8.566;2023-03-04T03:27:53;46.73;;;34.57;;
15061;SDS011;7630;50.306;8.566;2023-03-04T03:31:54;48.67;;;33.70;;
15061;SDS011;7630;50.306;8.566;2023-03-04T03:35:56;50.20;;;36.73;;
15061;SDS011;7630;50.306;8.566;2023-03-04T03:39:58;48.70;;;35.53;;
15061;SDS011;7630;50.306;8.566;2023-03-04T03:43:59;49.20;;;36.93;;
15061;SDS011;7630;50.306;8.566;2023-03-04T03:48:01;46.87;;;34.27;;
15061;SDS011;7630;50.306;8.566;2023-03-04T03:52:02;44.40;;;34.60;;
15061;SDS011;7630;50.306;8.566;2023-03-04T03:56:04;47.40;;;34.80;;
15061;SDS011;7630;50.306;8.566;2023-03-04T04:00:06;49.97;;;36.20;;
15061;SDS011;7630;50.306;8.566;2023-03-04T04:04:08;54.23;;;37.43;;
15061;SDS011;7630;50.306;8.566;2023-03-04T04:08:13;52.90;;;39.10;;
15061;SDS011;7630;50.306;8.566;2023-03-04T04:12:15;53.40;;;36.00;;
15061;SDS011;7630;50.306;8.566;2023-03-04T04:16:17;47.90;;;34.50;;
15061;SDS011;7630;50.306;8.566;2023-03-04T04:20:18;50.80;;;38.23;;
15061;SDS011;7630;50.306;8.566;2023-03-04T04:24:19;51.03;;;36.83;;
15061;SDS011;7630;50.306;8.566;2023-03-04T04:28:20;52.13;;;35.17;;
15061;SDS011;7630;50.306;8.566;2023-03-04T04:32:22;49.50;;;36.83;;
15061;SDS011;7630;50.306;8.566;2023-03-04T04:36:23;50.80;;;35.83;;
15061;SDS011;7630;50.306;8.566;2023-03-04T04:40:24;59.37;;;38.67;;
15061;SDS011;7630;50.306;8.566;2023-03-04T04:44:25;47.13;;;34.87;;
15061;SDS011;7630;50.306;8.566;2023-03-04T04:48:26;53.43;;;36.83;;
15061;SDS011;7630;50.306;8.566;2023-03-04T04:52:27;56.47;;;38.53;;
15061;SDS011;7630;50.306;8.566;2023-03-04T04:56:28;45.20;;;36.13;;
15061;SDS011;7630;50.306;8.566;2023-03-04T05:00:30;45.73;;;34.20;;
15061;SDS011;7630;50.306;8.566;2023-03-04T05:04:31;51.87;;;35.70;;
15061;SDS011;7630;50.306;8.566;2023-03-04T05:08:32;57.10;;;35.43;;
15061;SDS011;7630;50.306;8.566;2023-03-04T05:12:34;51.30;;;35.40;;
15061;SDS011;7630;50.306;8.566;2023-03-04T05:16:35;51.53;;;35.00;;
15061;SDS011;7630;50.306;8.566;2023-03-04T05:20:36;50.10;;;36.67;;
15061;SDS011;7630;50.306;8.566;2023-03-04T05:24:37;49.73;;;34.67;;
15061;SDS011;7630;50.306;8.566;2023-03-04T05:28:38;45.00;;;35.63;;
15061;SDS011;7630;50.306;8.566;2023-03-04T05:32:40;44.40;;;35.60;;
15061;SDS011;7630;50.306;8.566;2023-03-04T05:36:41;46.07;;;32.53;;
15061;SDS011;7630;50.306;8.566;2023-03-04T05:40:42;44.60;;;33.33;;
15061;SDS011;7630;50.306;8.566;2023-03-04T05:44:43;40.57;;;33.23;;
15061;SDS011;7630;50.306;8.566;2023-03-04T05:48:45;48.30;;;32.97;;
15061;SDS011;7630;50.306;8.566;2023-03-04T05:52:46;45.97;;;30.87;;
15061;SDS011;7630;50.306;8.566;2023-03-04T05:56:48;41.20;;;29.10;;
15061;SDS011;7630;50.306;8.566;2023-03-04T06:00:49;47.43;;;32.20;;
15061;SDS011;7630;50.306;8.566;2023-03-04T06:04:50;39.67;;;30.50;;
15061;SDS011;7630;50.306;8.566;2023-03-04T06:08:51;37.80;;;29.27;;
15061;SDS011;7630;50.306;8.566;2023-03-04T06:12:52;42.03;;;27.63;;
15061;SDS011;7630;50.306;8.566;2023-03-04T06:16:53;35.97;;;28.53;;
15061;SDS011;7630;50.306;8.566;2023-03-04T06:20:58;35.93;;;27.90;;
15061;SDS011;7630;50.306;8.566;2023-03-04T06:25:01;36.40;;;27.50;;
15061;SDS011;7630;50.306;8.566;2023-03-04T06:29:03;43.80;;;30.20;;
15061;SDS011;7630;50.306;8.566;2023-03-04T06:33:04;37.27;;;27.73;;
15061;SDS011;7630;50.306;8.566;2023-03-04T06:37:05;41.07;;;28.47;;
15061;SDS011;7630;50.306;8.566;2023-03-04T06:41:07;43.07;;;28.63;;
15061;SDS011;7630;50.306;8.566;2023-03-04T06:45:10;36.27;;;26.90;;
15061;SDS011;7630;50.306;8.566;2023-03-04T06:49:11;43.23;;;27.40;;
15061;SDS011;7630;50.306;8.566;2023-03-04T06:53:13;38.70;;;27.07;;
15061;SDS011;7630;50.306;8.566;2023-03-04T06:57:14;34.30;;;26.43;;
15061;SDS011;7630;50.306;8.566;2023-03-04T07:01:17;39.00;;;27.17;;
15061;SDS011;7630;50.306;8.566;2023-03-04T07:05:22;36.17;;;25.53;;
15061;SDS011;7630;50.306;8.566;2023-03-04T07:09:23;45.50;;;26.03;;
15061;SDS011;7630;50.306;8.566;2023-03-04T07:13:25;37.43;;;24.40;;
15061;SDS011;7630;50.306;8.566;2023-03-04T07:17:26;37.57;;;26.50;;
15061;SDS011;7630;50.306;8.566;2023-03-04T07:21:27;41.60;;;31.53;;
15061;SDS011;7630;50.306;8.566;2023-03-04T07:25:28;38.27;;;24.43;;
15061;SDS011;7630;50.306;8.566;2023-03-04T07:29:29;35.87;;;23.67;;
15061;SDS011;7630;50.306;8.566;2023-03-04T07:33:31;35.93;;;24.57;;
15061;SDS011;7630;50.306;8.566;2023-03-04T07:37:31;34.73;;;25.40;;
15061;SDS011;7630;50.306;8.566;2023-03-04T07:41:33;33.63;;;24.50;;
15061;SDS011;7630;50.306;8.566;2023-03-04T07:45:37;32.37;;;22.97;;
15061;SDS011;7630;50.306;8.566;2023-03-04T07:49:38;35.33;;;22.83;;
15061;SDS011;7630;50.306;8.566;2023-03-04T07:53:40;30.53;;;21.17;;
15061;SDS011;7630;50.306;8.566;2023-03-04T07:57:42;35.80;;;24.10;;
15061;SDS011;7630;50.306;8.566;2023-03-04T08:01:45;31.47;;;22.57;;
15061;SDS011;7630;50.306;8.566;2023-03-04T08:05:46;31.67;;;21.37;;
15061;SDS011;7630;50.306;8.566;2023-03-04T08:09:47;41.67;;;21.77;;
15061;SDS011;7630;50.306;8.566;2023-03-04T08:13:49;34.23;;;21.27;;
15061;SDS011;7630;50.306;8.566;2023-03-04T08:17:50;31.33;;;20.90;;
15061;SDS011;7630;50.306;8.566;2023-03-04T08:21:51;34.87;;;20.77;;
15061;SDS011;7630;50.306;8.566;2023-03-04T08:25:52;35.10;;;21.67;;
15061;SDS011;7630;50.306;8.566;2023-03-04T08:29:54;29.13;;;19.40;;
15061;SDS011;7630;50.306;8.566;2023-03-04T08:33:55;33.60;;;20.33;;
15061;SDS011;7630;50.306;8.566;2023-03-04T08:37:56;37.07;;;19.20;;
15061;SDS011;7630;50.306;8.566;2023-03-04T08:41:57;31.60;;;18.53;;
15061;SDS011;7630;50.306;8.566;2023-03-04T08:45:58;24.70;;;18.57;;
15061;SDS011;7630;50.306;8.566;2023-03-04T08:49:59;30.27;;;19.90;;
15061;SDS011;7630;50.306;8.566;2023-03-04T08:54:03;31.40;;;17.93;;
15061;SDS011;7630;50.306;8.566;2023-03-04T08:58:05;39.60;;;19.23;;
15061;SDS011;7630;50.306;8.566;2023-03-04T09:02:08;28.73;;;17.17;;
15061;SDS011;7630;50.306;8.566;2023-03-04T09:06:11;34.17;;;17.07;;
15061;SDS011;7630;50.306;8.566;2023-03-04T09:10:14;20.37;;;16.20;;
15061;SDS011;7630;50.306;8.566;2023-03-04T09:14:15;29.43;;;17.07;;
15061;SDS011;7630;50.306;8.566;2023-03-04T09:18:17;21.60;;;15.57;;
15061;SDS011;7630;50.306;8.566;2023-03-04T09:22:19;26.87;;;15.87;;
15061;SDS011;7630;50.306;8.566;2023-03-04T09:26:22;28.00;;;15.53;;
15061;SDS011;7630;50.306;8.566;2023-03-04T09:30:25;22.50;;;15.57;;
15061;SDS011;7630;50.306;8.566;2023-03-04T09:34:28;21.50;;;14.57;;
15061;SDS011;7630;50.306;8.566;2023-03-04T09:38:29;24.77;;;14.27;;
15061;SDS011;7630;50.306;8.566;2023-03-04T09:42:34;33.70;;;15.47;;
15061;SDS011;7630;50.306;8.566;2023-03-04T09:46:38;21.43;;;14.13;;
15061;SDS011;7630;50.306;8.566;2023-03-04T09:50:44;19.60;;;13.20;;
15061;SDS011;7630;50.306;8.566;2023-03-04T09:59:24;17.73;;;12.37;;
15061;SDS011;7630;50.306;8.566;2023-03-04T10:03:32;19.80;;;12.33;;
15061;SDS011;7630;50.306;8.566;2023-03-04T10:07:33;23.70;;;11.77;;
15061;SDS011;7630;50.306;8.566;2023-03-04T10:15:51;29.97;;;12.33;;
15061;SDS011;7630;50.306;8.566;2023-03-04T10:24:04;19.50;;;10.90;;
15061;SDS011;7630;50.306;8.566;2023-03-04T10:32:27;13.30;;;9.33;;
15061;SDS011;7630;50.306;8.566;2023-03-04T10:40:36;18.20;;;10.60;;
15061;SDS011;7630;50.306;8.566;2023-03-04T10:44:40;18.07;;;10.20;;
15061;SDS011;7630;50.306;8.566;2023-03-04T10:48:43;15.83;;;10.03;;
15061;SDS011;7630;50.306;8.566;2023-03-04T10:52:45;15.03;;;9.77;;
15061;SDS011;7630;50.306;8.566;2023-03-04T10:56:57;17.07;;;8.27;;
15061;SDS011;7630;50.306;8.566;2023-03-04T11:01:04;19.10;;;9.73;;
15061;SDS011;7630;50.306;8.566;2023-03-04T11:09:21;13.77;;;8.23;;
15061;SDS011;7630;50.306;8.566;2023-03-04T11:13:28;12.30;;;8.03;;
15061;SDS011;7630;50.306;8.566;2023-03-04T11:17:47;9.63;;;6.77;;
15061;SDS011;7630;50.306;8.566;2023-03-04T11:21:51;11.97;;;7.57;;
15061;SDS011;7630;50.306;8.566;2023-03-04T11:25:58;12.10;;;6.50;;
15061;SDS011;7630;50.306;8.566;2023-03-04T11:38:43;8.70;;;6.57;;
15061;SDS011;7630;50.306;8.566;2023-03-04T11:42:51;11.53;;;5.77;;
15061;SDS011;7630;50.306;8.566;2023-03-04T11:56:10;10.73;;;5.50;;
15061;SDS011;7630;50.306;8.566;2023-03-04T12:00:38;15.93;;;8.70;;
15061;SDS011;7630;50.306;8.566;2023-03-04T12:34:49;6.03;;;4.73;;
15061;SDS011;7630;50.306;8.566;2023-03-04T12:47:33;9.77;;;4.30;;
15061;SDS011;7630;50.306;8.566;2023-03-04T12:56:25;6.50;;;5.10;;
15061;SDS011;7630;50.306;8.566;2023-03-04T13:01:01;6.03;;;5.43;;
15061;SDS011;7630;50.306;8.566;2023-03-04T13:09:46;8.93;;;5.83;;
15061;SDS011;7630;50.306;8.566;2023-03-04T13:14:07;7.70;;;5.63;;
15061;SDS011;7630;50.306;8.566;2023-03-04T13:26:44;9.37;;;8.43;;
15061;SDS011;7630;50.306;8.566;2023-03-04T13:35:00;6.57;;;5.30;;
15061;SDS011;7630;50.306;8.566;2023-03-04T13:43:27;6.97;;;5.77;;
15061;SDS011;7630;50.306;8.566;2023-03-04T13:47:53;9.53;;;6.83;;
15061;SDS011;7630;50.306;8.566;2023-03-04T13:52:35;8.37;;;6.47;;
15061;SDS011;7630;50.306;8.566;2023-03-04T13:56:40;7.53;;;6.70;;
15061;SDS011;7630;50.306;8.566;2023-03-04T14:00:11;9.37;;;7.23;;
15061;SDS011;7630;50.306;8.566;2023-03-04T14:04:26;8.33;;;6.83;;
15061;SDS011;7630;50.306;8.566;2023-03-04T14:08:24;11.87;;;7.17;;
15061;SDS011;7630;50.306;8.566;2023-03-04T14:12:26;9.20;;;7.33;;
15061;SDS011;7630;50.306;8.566;2023-03-04T14:16:29;10.13;;;7.43;;
15061;SDS011;7630;50.306;8.566;2023-03-04T14:20:34;11.07;;;7.27;;
15061;SDS011;7630;50.306;8.566;2023-03-04T14:24:37;11.27;;;7.37;;
15061;SDS011;7630;50.306;8.566;2023-03-04T14:28:48;10.67;;;6.47;;
15061;SDS011;7630;50.306;8.566;2023-03-04T14:32:52;13.27;;;7.90;;
15061;SDS011;7630;50.306;8.566;2023-03-04T14:36:55;7.73;;;6.93;;
15061;SDS011;7630;50.306;8.566;2023-03-04T14:40:58;9.87;;;7.43;;
15061;SDS011;7630;50.306;8.566;2023-03-04T14:45:01;11.80;;;5.80;;
15061;SDS011;7630;50.306;8.566;2023-03-04T14:49:03;7.70;;;6.90;;
15061;SDS011;7630;50.306;8.566;2023-03-04T15:05:37;8.47;;;5.43;;
15061;SDS011;7630;50.306;8.566;2023-03-04T15:09:38;5.63;;;4.23;;
15061;SDS011;7630;50.306;8.566;2023-03-04T15:14:02;7.37;;;5.37;;
15061;SDS011;7630;50.306;8.566;2023-03-04T15:17:56;9.57;;;5.53;;
15061;SDS011;7630;50.306;8.566;2023-03-04T15:22:04;5.27;;;4.77;;
15061;SDS011;7630;50.306;8.566;2023-03-04T15:26:07;8.13;;;5.73;;
15061;SDS011;7630;50.306;8.566;2023-03-04T15:30:17;6.97;;;6.00;;
15061;SDS011;7630;50.306;8.566;2023-03-04T15:34:21;9.77;;;5.27;;
15061;SDS011;7630;50.306;8.566;2023-03-04T15:38:22;7.17;;;5.83;;
15061;SDS011;7630;50.306;8.566;2023-03-04T15:42:24;8.80;;;6.67;;
15061;SDS011;7630;50.306;8.566;2023-03-04T15:46:25;8.33;;;6.40;;
15061;SDS011;7630;50.306;8.566;2023-03-04T15:50:27;8.10;;;5.93;;
15061;SDS011;7630;50.306;8.566;2023-03-04T15:54:29;7.93;;;6.47;;
15061;SDS011;7630;50.306;8.566;2023-03-04T15:58:30;14.13;;;9.47;;
15061;SDS011;7630;50.306;8.566;2023-03-04T16:02:34;10.07;;;9.10;;
15061;SDS011;7630;50.306;8.566;2023-03-04T16:06:35;12.17;;;9.93;;
15061;SDS011;7630;50.306;8.566;2023-03-04T16:10:36;11.67;;;10.27;;
15061;SDS011;7630;50.306;8.566;2023-03-04T16:14:37;11.73;;;10.53;;
15061;SDS011;7630;50.306;8.566;2023-03-04T16:18:39;13.27;;;11.87;;
15061;SDS011;7630;50.306;8.566;2023-03-04T16:22:41;16.13;;;13.23;;
15061;SDS011;7630;50.306;8.566;2023-03-04T16:26:43;15.73;;;10.10;;
15061;SDS011;7630;50.306;8.566;2023-03-04T16:30:44;15.43;;;11.73;;
15061;SDS011;7630;50.306;8.566;2023-03-04T16:34:46;20.57;;;15.67;;
15061;SDS011;7630;50.306;8.566;2023-03-04T16:38:47;19.67;;;16.13;;
15061;SDS011;7630;50.306;8.566;2023-03-04T16:42:51;12.30;;;10.90;;
15061;SDS011;7630;50.306;8.566;2023-03-04T16:46:52;12.10;;;10.90;;
15061;SDS011;7630;50.306;8.566;2023-03-04T16:50:54;19.20;;;16.10;;
15061;SDS011;7630;50.306;8.566;2023-03-04T16:54:58;19.10;;;14.37;;
15061;SDS011;7630;50.306;8.566;2023-03-04T16:59:00;25.53;;;19.40;;
15061;SDS011;7630;50.306;8.566;2023-03-04T17:03:01;24.57;;;16.70;;
15061;SDS011;7630;50.306;8.566;2023-03-04T17:07:03;23.97;;;19.77;;
15061;SDS011;7630;50.306;8.566;2023-03-04T17:11:04;23.10;;;18.57;;
15061;SDS011;7630;50.306;8.566;2023-03-04T17:15:06;23.40;;;16.50;;
15061;SDS011;7630;50.306;8.566;2023-03-04T17:19:09;20.90;;;18.73;;
15061;SDS011;7630;50.306;8.566;2023-03-04T17:23:11;19.70;;;16.53;;
15061;SDS011;7630;50.306;8.566;2023-03-04T17:27:12;20.40;;;17.97;;
15061;SDS011;7630;50.306;8.566;2023-03-04T17:31:15;22.10;;;18.70;;
15061;SDS011;7630;50.306;8.566;2023-03-04T17:35:17;21.70;;;18.17;;
15061;SDS011;7630;50.306;8.566;2023-03-04T17:39:19;25.27;;;19.23;;
15061;SDS011;7630;50.306;8.566;2023-03-04T17:43:20;21.57;;;17.67;;
15061;SDS011;7630;50.306;8.566;2023-03-04T17:47:22;20.73;;;17.93;;
15061;SDS011;7630;50.306;8.566;2023-03-04T17:55:34;20.97;;;18.73;;
15061;SDS011;7630;50.306;8.566;2023-03-04T17:59:35;21.07;;;18.67;;
15061;SDS011;7630;50.306;8.566;2023-03-04T18:03:36;22.27;;;19.23;;
15061;SDS011;7630;50.306;8.566;2023-03-04T18:07:38;23.97;;;19.30;;
15061;SDS011;7630;50.306;8.566;2023-03-04T18:11:39;21.53;;;19.13;;
15061;SDS011;7630;50.306;8.566;2023-03-04T18:15:41;22.40;;;20.10;;
15061;SDS011;7630;50.306;8.566;2023-03-04T18:19:43;20.27;;;18.07;;
15061;SDS011;7630;50.306;8.566;2023-03-04T18:23:44;21.67;;;18.87;;
15061;SDS011;7630;50.306;8.566;2023-03-04T18:27:46;21.60;;;17.60;;
15061;SDS011;7630;50.306;8.566;2023-03-04T18:31:47;21.47;;;18.40;;
15061;SDS011;7630;50.306;8.566;2023-03-04T18:35:48;22.77;;;20.30;;
15061;SDS011;7630;50.306;8.566;2023-03-04T18:39:49;36.03;;;32.17;;
15061;SDS011;7630;50.306;8.566;2023-03-04T18:43:50;24.43;;;21.77;;
15061;SDS011;7630;50.306;8.566;2023-03-04T18:47:52;29.53;;;23.50;;
15061;SDS011;7630;50.306;8.566;2023-03-04T18:51:54;23.80;;;20.50;;
15061;SDS011;7630;50.306;8.566;2023-03-04T18:55:56;31.63;;;20.57;;
15061;SDS011;7630;50.306;8.566;2023-03-04T19:00:03;23.97;;;21.37;;
15061;SDS011;7630;50.306;8.566;2023-03-04T19:04:05;25.00;;;21.73;;
15061;SDS011;7630;50.306;8.566;2023-03-04T19:08:07;24.90;;;22.37;;
15061;SDS011;7630;50.306;8.566;2023-03-04T19:12:08;25.50;;;23.10;;
15061;SDS011;7630;50.306;8.566;2023-03-04T19:16:12;25.37;;;22.57;;
15061;SDS011;7630;50.306;8.566;2023-03-04T19:20:14;29.30;;;22.53;;
15061;SDS011;7630;50.306;8.566;2023-03-04T19:24:16;25.00;;;22.20;;
15061;SDS011;7630;50.306;8.566;2023-03-04T19:28:17;49.90;;;35.03;;
15061;SDS011;7630;50.306;8.566;2023-03-04T19:32:19;30.90;;;24.73;;
15061;SDS011;7630;50.306;8.566;2023-03-04T19:36:20;27.10;;;24.23;;
15061;SDS011;7630;50.306;8.566;2023-03-04T19:40:22;26.43;;;23.77;;
15061;SDS011;7630;50.306;8.566;2023-03-04T19:44:24;28.77;;;25.73;;
15061;SDS011;7630;50.306;8.566;2023-03-04T19:48:25;26.17;;;23.67;;
15061;SDS011;7630;50.306;8.566;2023-03-04T19:52:27;27.50;;;24.57;;
15061;SDS011;7630;50.306;8.566;2023-03-04T19:56:28;27.03;;;23.83;;
15061;SDS011;7630;50.306;8.566;2023-03-04T20:00:31;28.40;;;23.43;;
15061;SDS011;7630;50.306;8.566;2023-03-04T20:04:32;28.83;;;25.17;;
15061;SDS011;7630;50.306;8.566;2023-03-04T20:08:34;29.87;;;24.57;;
15061;SDS011;7630;50.306;8.566;2023-03-04T20:12:38;27.63;;;23.13;;
15061;SDS011;7630;50.306;8.566;2023-03-04T20:16:39;60.47;;;46.50;;
15061;SDS011;7630;50.306;8.566;2023-03-04T20:20:41;28.73;;;25.70;;
15061;SDS011;7630;50.306;8.566;2023-03-04T20:24:42;28.43;;;25.33;;
15061;SDS011;7630;50.306;8.566;2023-03-04T20:28:43;28.40;;;25.40;;
15061;SDS011;7630;50.306;8.566;2023-03-04T20:32:45;29.50;;;26.37;;
15061;SDS011;7630;50.306;8.566;2023-03-04T20:36:47;30.83;;;25.73;;
15061;SDS011;7630;50.306;8.566;2023-03-04T20:40:48;30.70;;;27.70;;
15061;SDS011;7630;50.306;8.566;2023-03-04T20:44:49;31.70;;;28.37;;
15061;SDS011;7630;50.306;8.566;2023-03-04T20:48:51;33.13;;;28.43;;
15061;SDS011;7630;50.306;8.566;2023-03-04T20:52:53;31.67;;;28.23;;
15061;SDS011;7630;50.306;8.566;2023-03-04T20:56:54;30.70;;;27.17;;
15061;SDS011;7630;50.306;8.566;2023-03-04T21:00:55;31.63;;;28.40;;
15061;SDS011;7630;50.306;8.566;2023-03-04T21:04:57;33.10;;;27.77;;
15061;SDS011;7630;50.306;8.566;2023-03-04T21:08:59;29.43;;;26.33;;
15061;SDS011;7630;50.306;8.566;2023-03-04T21:13:02;62.27;;;41.93;;
15061;SDS011;7630;50.306;8.566;2023-03-04T21:17:04;34.07;;;29.30;;
15061;SDS011;7630;50.306;8.566;2023-03-04T21:21:12;32.73;;;29.37;;
15061;SDS011;7630;50.306;8.566;2023-03-04T21:25:16;33.47;;;29.97;;
15061;SDS011;7630;50.306;8.566;2023-03-04T21:29:20;36.73;;;32.83;;
15061;SDS011;7630;50.306;8.566;2023-03-04T21:33:24;31.60;;;28.50;;
15061;SDS011;7630;50.306;8.566;2023-03-04T21:37:28;31.40;;;28.10;;
15061;SDS011;7630;50.306;8.566;2023-03-04T21:41:29;31.10;;;27.77;;
15061;SDS011;7630;50.306;8.566;2023-03-04T21:45:31;31.27;;;28.03;;
15061;SDS011;7630;50.306;8.566;2023-03-04T21:49:33;31.20;;;27.83;;
15061;SDS011;7630;50.306;8.566;2023-03-04T21:53:34;31.23;;;28.10;;
15061;SDS011;7630;50.306;8.566;2023-03-04T21:57:36;32.40;;;29.23;;
15061;SDS011;7630;50.306;8.566;2023-03-04T22:01:37;31.97;;;28.63;;
15061;SDS011;7630;50.306;8.566;2023-03-04T22:05:40;31.17;;;28.00;;
15061;SDS011;7630;50.306;8.566;2023-03-04T22:09:44;34.37;;;30.43;;
15061;SDS011;7630;50.306;8.566;2023-03-04T22:13:45;42.27;;;35.07;;
15061;SDS011;7630;50.306;8.566;2023-03-04T22:17:48;31.43;;;27.80;;
15061;SDS011;7630;50.306;8.566;2023-03-04T22:21:50;30.00;;;25.73;;
15061;SDS011;7630;50.306;8.566;2023-03-04T22:25:52;27.47;;;24.50;;
15061;SDS011;7630;50.306;8.566;2023-03-04T22:29:54;33.47;;;27.73;;
15061;SDS011;7630;50.306;8.566;2023-03-04T22:34:03;27.33;;;22.50;;
15061;SDS011;7630;50.306;8.566;2023-03-04T22:38:03;26.00;;;23.10;;
15061;SDS011;7630;50.306;8.566;2023-03-04T22:42:05;28.77;;;24.90;;
15061;SDS011;7630;50.306;8.566;2023-03-04T22:46:10;35.00;;;28.03;;
15061;SDS011;7630;50.306;8.566;2023-03-04T22:50:16;36.30;;;29.63;;
15061;SDS011;7630;50.306;8.566;2023-03-04T22:54:18;35.20;;;29.63;;
15061;SDS011;7630;50.306;8.566;2023-03-04T22:58:19;26.77;;;23.97;;
15061;SDS011;7630;50.306;8.566;2023-03-04T23:02:21;33.33;;;26.93;;
15061;SDS011;7630;50.306;8.566;2023-03-04T23:06:22;30.43;;;24.83;;
15061;SDS011;7630;50.306;8.566;2023-03-04T23:10:25;27.17;;;24.27;;
15061;SDS011;7630;50.306;8.566;2023-03-04T23:14:26;28.03;;;24.30;;
15061;SDS011;7630;50.306;8.566;2023-03-04T23:18:27;26.63;;;23.80;;
15061;SDS011;7630;50.306;8.566;2023-03-04T23:22:28;28.43;;;22.47;;
15061;SDS011;7630;50.306;8.566;2023-03-04T23:26:31;24.80;;;20.47;;
15061;SDS011;7630;50.306;8.566;2023-03-04T23:30:34;17.67;;;15.80;;
15061;SDS011;7630;50.306;8.566;2023-03-04T23:34:36;21.07;;;18.90;;
15061;SDS011;7630;50.306;8.566;2023-03-04T23:38:37;17.70;;;16.10;;
15061;SDS011;7630;50.306;8.566;2023-03-04T23:42:38;28.60;;;19.50;;
15061;SDS011;7630;50.306;8.566;2023-03-04T23:46:40;20.40;;;12.77;;
15061;SDS011;7630;50.306;8.566;2023-03-04T23:50:41;36.10;;;27.23;;
15061;SDS011;7630;50.306;8.566;2023-03-04T23:54:46;18.37;;;12.63;;
15061;SDS011;7630;50.306;8.566;2023-03-04T23:58:48;15.33;;;11.03;;
